Idman, Idaho
Current Conditions -  °F | °C
As of 11:53 PM on Friday 28 Nov 2014 (Local Time) from KRXE Reporting Station
Clear Clear  
Wind Chill: 38°   Ceiling: Unl
Heat Index: 46°   Visibility: 10mi
Dew Point: 18°   Wind: 22mph
Humidity: 33%   Direction: 220°SW
Pressure: 29.6"   Gusts: 29mph
Location:  44.2396°N, 112.579°W
Report Text: KRXE 290653Z AUTO 22019G25KT 10SM CLR 08/M08 A2960 RMK AO2 SLP008 T00781078 401280033
Loading
Personal Weather Stations






























Interactive Weather Map New forecast layout! Learn more

10-Day Weather Forecast

Advertisements
Track Severe Weather on mobile